Time;durP1;ratioP1;P1;durP2;ratioP2;P2;SDS_P1;SDS_P2;PMS_P1;PMS_P2;Temp;Humidity;BMP_temperature;BMP_pressure;BME280_temperature;BME280_humidity;BME280_pressure;Samples;Min_cycle;Max_cycle;Signal;HPM_P1;HPM_P2
2023/02/04 00:00:13;;;;;;;5.65;2.40;;;0.40;99.90;;;;;;5073488;28;20029;-74
2023/02/04 00:02:40;;;;;;;5.22;2.10;;;0.30;99.90;;;;;;5059437;28;20078;-74
2023/02/04 00:05:06;;;;;;;3.38;2.13;;;0.20;99.90;;;;;;5053193;28;20029;-74
2023/02/04 00:07:31;;;;;;;5.28;2.30;;;0.20;99.90;;;;;;5053133;28;20064;-74
2023/02/04 00:09:57;;;;;;;2.65;1.85;;;0.20;99.90;;;;;;5053358;28;20021;-74
2023/02/04 00:12:23;;;;;;;7.20;2.42;;;0.20;99.90;;;;;;5053306;28;20029;-74
2023/02/04 00:14:48;;;;;;;4.18;2.50;;;0.20;99.90;;;;;;5053221;28;20487;-74
2023/02/04 00:17:14;;;;;;;6.40;1.90;;;0.20;99.90;;;;;;5053004;28;20158;-74
2023/02/04 00:19:40;;;;;;;6.75;2.72;;;0.20;99.90;;;;;;5053180;28;20040;-74
2023/02/04 00:22:06;;;;;;;5.47;2.55;;;0.10;99.90;;;;;;5053436;28;20025;-74
2023/02/04 00:24:33;;;;;;;6.20;2.78;;;0.10;99.90;;;;;;5053181;28;20036;-74
2023/02/04 00:26:58;;;;;;;4.25;2.40;;;0.00;99.90;;;;;;5053000;28;20017;-74
2023/02/04 00:29:24;;;;;;;4.07;2.03;;;-0.10;99.90;;;;;;5053333;28;20074;-74
2023/02/04 00:31:49;;;;;;;7.05;2.92;;;-0.20;99.90;;;;;;5052978;28;20025;-74
2023/02/04 00:34:17;;;;;;;5.05;2.38;;;-0.30;99.90;;;;;;5053096;28;20043;-74
2023/02/04 00:36:42;;;;;;;5.97;2.28;;;-0.50;99.90;;;;;;5052769;28;20047;-74
2023/02/04 00:39:08;;;;;;;6.22;2.53;;;-0.60;99.90;;;;;;5055717;28;20495;-73
2023/02/04 00:41:33;;;;;;;4.50;2.28;;;-0.70;99.90;;;;;;5057116;28;20395;-73
2023/02/04 00:43:59;;;;;;;4.93;2.70;;;-0.80;99.90;;;;;;5056592;28;20032;-73
2023/02/04 00:46:24;;;;;;;4.43;2.78;;;-0.80;99.90;;;;;;5057044;28;20215;-74
2023/02/04 00:48:50;;;;;;;4.00;2.45;;;-0.90;99.90;;;;;;5056715;28;20032;-74
2023/02/04 00:51:15;;;;;;;7.90;2.55;;;-0.90;99.90;;;;;;5057089;28;20032;-74
2023/02/04 00:53:41;;;;;;;4.15;2.72;;;-1.00;99.90;;;;;;5056561;28;20025;-73
2023/02/04 00:56:07;;;;;;;6.40;2.63;;;-1.00;99.90;;;;;;5056697;28;20065;-74
2023/02/04 00:58:32;;;;;;;7.18;2.95;;;-1.10;99.90;;;;;;5056560;28;20025;-74
2023/02/04 01:00:58;;;;;;;7.72;2.25;;;-1.10;99.90;;;;;;5056726;28;20029;-73
2023/02/04 01:03:23;;;;;;;5.60;2.50;;;-1.10;99.90;;;;;;5056526;28;20044;-73
2023/02/04 01:05:49;;;;;;;6.28;2.47;;;-1.10;99.90;;;;;;5057052;28;20061;-74
2023/02/04 01:08:14;;;;;;;7.72;3.38;;;-1.00;99.90;;;;;;5056499;28;20108;-74
2023/02/04 01:10:40;;;;;;;6.60;3.47;;;-0.90;99.90;;;;;;5056677;28;20095;-74
2023/02/04 01:13:07;;;;;;;3.17;2.25;;;-1.00;99.90;;;;;;5056141;28;20100;-74
2023/02/04 01:15:33;;;;;;;10.50;2.63;;;-1.10;99.90;;;;;;5057196;28;20017;-74
2023/02/04 01:17:59;;;;;;;5.43;3.53;;;-1.10;99.90;;;;;;5056880;28;20033;-74
2023/02/04 01:20:24;;;;;;;9.30;3.15;;;-1.10;99.90;;;;;;5056710;28;20021;-74
2023/02/04 01:22:50;;;;;;;5.82;2.80;;;-1.10;99.90;;;;;;5056280;28;20056;-74
2023/02/04 01:25:15;;;;;;;3.80;2.42;;;-1.20;99.90;;;;;;5056536;28;20037;-74
2023/02/04 01:27:42;;;;;;;6.38;2.38;;;-1.30;99.90;;;;;;5055907;28;20052;-74
2023/02/04 01:30:09;;;;;;;4.35;2.35;;;-1.30;99.90;;;;;;5056279;28;20159;-74
2023/02/04 01:32:34;;;;;;;3.97;2.85;;;-1.30;99.90;;;;;;5055874;28;20032;-74
2023/02/04 01:35:00;;;;;;;6.57;2.70;;;-1.30;99.90;;;;;;5055893;28;20029;-74
2023/02/04 01:37:25;;;;;;;10.07;2.58;;;-1.40;99.90;;;;;;5056191;28;20033;-74
2023/02/04 01:39:51;;;;;;;4.25;2.65;;;-1.40;99.90;;;;;;5056187;28;20029;-74
2023/02/04 01:42:17;;;;;;;5.30;2.90;;;-1.50;99.90;;;;;;5065084;22;20038;-69
2023/02/04 01:44:42;;;;;;;3.42;2.70;;;-1.40;99.90;;;;;;5036442;28;20095;-69
2023/02/04 01:47:09;;;;;;;5.45;3.03;;;-1.50;99.90;;;;;;5035808;28;20029;-69
2023/02/04 01:49:34;;;;;;;5.65;2.85;;;-1.50;99.90;;;;;;5035013;28;20083;-69
2023/02/04 01:52:01;;;;;;;4.80;3.30;;;-1.50;99.90;;;;;;5035838;28;20026;-69
2023/02/04 01:54:27;;;;;;;5.07;3.30;;;-1.60;99.90;;;;;;5035632;28;20497;-69
2023/02/04 01:56:54;;;;;;;10.30;3.13;;;-1.60;99.90;;;;;;5035702;28;20433;-69
2023/02/04 01:59:20;;;;;;;5.40;2.70;;;-1.60;99.90;;;;;;5035493;28;20045;-69
2023/02/04 02:01:48;;;;;;;6.35;3.53;;;-1.60;99.90;;;;;;5035331;28;20467;-69
2023/02/04 02:04:16;;;;;;;4.47;3.05;;;-1.60;99.90;;;;;;5035641;28;20026;-69
2023/02/04 02:06:48;;;;;;;7.82;3.08;;;-1.70;99.90;;;;;;5035325;28;20099;-69
2023/02/04 02:09:13;;;;;;;5.65;3.47;;;-1.70;99.90;;;;;;5035472;28;20053;-69
2023/02/04 02:11:39;;;;;;;7.35;3.30;;;-1.80;99.90;;;;;;5035246;28;20053;-69
2023/02/04 02:14:05;;;;;;;4.13;3.30;;;-1.80;99.90;;;;;;5035239;28;20031;-69
2023/02/04 02:16:30;;;;;;;6.57;4.13;;;-1.70;99.90;;;;;;5035287;28;20093;-69
2023/02/04 02:18:58;;;;;;;12.23;3.97;;;-1.70;99.90;;;;;;5035593;28;20029;-69
2023/02/04 02:21:48;;;;;;;4.75;3.58;;;-1.70;99.90;;;;;;5035369;28;20047;-69
2023/02/04 02:24:34;;;;;;;5.35;3.53;;;-1.70;99.90;;;;;;5032306;28;20057;-69
2023/02/04 02:27:03;;;;;;;9.02;3.90;;;-1.50;99.90;;;;;;5033143;28;20034;-69
2023/02/04 02:29:29;;;;;;;13.10;5.05;;;-1.50;99.90;;;;;;5035310;28;20024;-69
2023/02/04 02:31:56;;;;;;;9.93;4.03;;;-1.50;99.90;;;;;;5034975;28;20017;-69
2023/02/04 02:34:24;;;;;;;9.15;5.10;;;-1.40;99.90;;;;;;5035007;28;20427;-69
2023/02/04 02:36:50;;;;;;;12.60;5.38;;;-1.20;99.90;;;;;;5034700;28;20071;-69
2023/02/04 02:39:17;;;;;;;9.98;4.95;;;-1.00;99.90;;;;;;5034939;28;20415;-69
2023/02/04 02:41:42;;;;;;;13.85;4.53;;;-1.10;99.90;;;;;;5034575;28;20029;-69
2023/02/04 02:44:11;;;;;;;14.18;4.80;;;-1.20;99.90;;;;;;5035058;28;20076;-69
2023/02/04 02:46:36;;;;;;;8.20;4.50;;;-1.30;99.90;;;;;;5034891;28;20026;-69
2023/02/04 02:49:02;;;;;;;12.65;5.50;;;-1.30;99.90;;;;;;5034414;28;20056;-69
2023/02/04 02:51:28;;;;;;;12.48;4.93;;;-1.30;99.90;;;;;;5034627;28;20025;-69
2023/02/04 02:53:53;;;;;;;6.20;3.88;;;-1.40;99.90;;;;;;5034771;28;20104;-69
2023/02/04 02:56:19;;;;;;;9.48;4.35;;;-1.40;99.90;;;;;;5034427;28;20017;-69
2023/02/04 02:58:44;;;;;;;9.80;4.45;;;-1.40;99.90;;;;;;5034459;28;20479;-69
2023/02/04 03:01:11;;;;;;;7.28;4.75;;;-1.50;99.90;;;;;;5034116;28;20056;-69
2023/02/04 03:03:50;;;;;;;10.52;5.20;;;-1.50;99.90;;;;;;5034382;28;20026;-69
2023/02/04 03:06:24;;;;;;;7.38;3.80;;;-1.50;99.90;;;;;;5034515;28;20079;-69
2023/02/04 03:08:51;;;;;;;;;;;-1.50;99.90;;;;;;5034526;28;20411;-69
2023/02/04 03:11:17;;;;;;;6.78;4.22;;;-1.60;99.90;;;;;;5034370;28;19905;-69
2023/02/04 03:13:42;;;;;;;9.18;3.95;;;-1.70;99.90;;;;;;5034515;28;20032;-69
2023/02/04 03:16:08;;;;;;;12.77;4.88;;;-1.80;99.90;;;;;;5034088;28;20104;-69
2023/02/04 03:18:35;;;;;;;8.23;5.13;;;-1.70;99.90;;;;;;5034383;28;20025;-69
2023/02/04 03:21:03;;;;;;;9.68;5.13;;;-1.70;99.90;;;;;;5033896;28;20117;-69
2023/02/04 03:23:30;;;;;;;12.73;5.13;;;-1.70;99.90;;;;;;5034249;28;20030;-69
2023/02/04 03:25:55;;;;;;;10.07;5.00;;;-1.80;99.90;;;;;;5033947;28;20040;-69
2023/02/04 03:28:21;;;;;;;14.68;5.40;;;-1.80;99.90;;;;;;5033973;28;20483;-69
2023/02/04 03:30:52;;;;;;;9.27;4.50;;;-1.80;99.90;;;;;;5033570;28;20419;-69
2023/02/04 03:33:18;;;;;;;15.57;5.20;;;-1.90;99.90;;;;;;5034050;28;20033;-69
2023/02/04 03:35:43;;;;;;;12.75;5.15;;;-1.90;99.90;;;;;;5033985;28;20025;-69
2023/02/04 03:38:09;;;;;;;9.55;5.28;;;-2.00;99.90;;;;;;5033802;28;20025;-69
2023/02/04 03:40:34;;;;;;;10.13;5.10;;;-2.00;99.90;;;;;;5033731;28;20026;-69
2023/02/04 03:43:00;;;;;;;15.35;5.88;;;-2.00;99.90;;;;;;5033904;28;20033;-69
2023/02/04 03:45:25;;;;;;;8.02;4.78;;;-2.00;99.90;;;;;;5033527;28;20029;-69
2023/02/04 03:47:51;;;;;;;8.32;4.70;;;-2.00;99.90;;;;;;5033771;28;20025;-69
2023/02/04 03:50:16;;;;;;;15.95;4.70;;;-2.00;99.90;;;;;;5033519;28;20417;-69
2023/02/04 03:52:43;;;;;;;14.00;5.35;;;-2.10;99.90;;;;;;5015915;28;20084;-69
2023/02/04 03:55:09;;;;;;;19.25;5.80;;;-2.00;99.90;;;;;;5033281;28;20029;-69
2023/02/04 03:57:34;;;;;;;11.00;5.03;;;-2.00;99.90;;;;;;5033414;28;20390;-69
2023/02/04 04:00:00;;;;;;;12.63;4.78;;;-1.90;99.90;;;;;;5033313;28;20109;-69
2023/02/04 04:02:25;;;;;;;11.25;5.95;;;-1.90;99.90;;;;;;5033428;28;20029;-69
2023/02/04 04:04:51;;;;;;;10.43;5.80;;;-1.80;99.90;;;;;;5033495;28;20057;-69
2023/02/04 04:07:16;;;;;;;15.27;6.63;;;-1.80;99.90;;;;;;5033376;28;20487;-69
2023/02/04 04:09:42;;;;;;;16.58;6.40;;;-1.60;99.90;;;;;;5033242;28;20022;-69
2023/02/04 04:12:07;;;;;;;21.63;6.93;;;-1.60;99.90;;;;;;5033053;28;20031;-69
2023/02/04 04:14:33;;;;;;;23.52;7.13;;;-1.60;99.90;;;;;;5015409;28;20021;-69
2023/02/04 04:16:58;;;;;;;15.57;7.88;;;-1.50;99.90;;;;;;5033381;28;20022;-69
2023/02/04 04:19:24;;;;;;;15.27;7.45;;;-1.50;99.90;;;;;;5032875;28;20026;-69
2023/02/04 04:21:49;;;;;;;24.35;8.25;;;-1.30;99.90;;;;;;5033142;28;20025;-69
2023/02/04 04:24:15;;;;;;;19.80;7.40;;;-1.10;99.90;;;;;;5032991;28;20096;-69
2023/02/04 04:26:40;;;;;;;18.33;8.00;;;-1.00;99.90;;;;;;5033187;28;20112;-69
2023/02/04 04:29:06;;;;;;;13.50;7.18;;;-1.00;99.90;;;;;;5033729;28;20029;-69
2023/02/04 04:31:31;;;;;;;14.98;7.32;;;-1.10;99.90;;;;;;5032896;28;20022;-69
2023/02/04 04:33:57;;;;;;;23.83;7.63;;;-1.20;99.90;;;;;;5033184;28;20021;-69
2023/02/04 04:36:22;;;;;;;23.60;8.60;;;-1.20;99.90;;;;;;5032763;28;20029;-69
2023/02/04 04:38:48;;;;;;;23.15;9.13;;;-1.20;99.90;;;;;;5032984;28;20025;-69
2023/02/04 04:41:13;;;;;;;13.10;7.20;;;-1.20;99.90;;;;;;5033096;28;20042;-69
2023/02/04 04:43:39;;;;;;;15.23;8.20;;;-1.30;99.90;;;;;;5032745;28;20021;-69
2023/02/04 04:46:05;;;;;;;12.90;5.95;;;-1.40;99.90;;;;;;5033083;28;20480;-69
2023/02/04 04:48:30;;;;;;;14.48;7.30;;;-1.50;99.90;;;;;;5032575;28;20036;-69
2023/02/04 04:50:57;;;;;;;8.55;5.57;;;-1.60;99.90;;;;;;5028515;28;20064;-69
2023/02/04 04:53:22;;;;;;;12.52;7.32;;;-1.70;99.90;;;;;;5032721;28;20105;-69
2023/02/04 04:55:48;;;;;;;12.82;5.75;;;-1.80;99.90;;;;;;5032764;28;20049;-69
2023/02/04 04:58:13;;;;;;;16.52;6.05;;;-1.80;99.90;;;;;;5032457;28;20076;-69
2023/02/04 05:00:40;;;;;;;13.50;6.47;;;-1.90;99.90;;;;;;5032744;28;20071;-69
2023/02/04 05:03:05;;;;;;;13.93;6.22;;;-1.90;99.90;;;;;;5032600;28;20417;-69
2023/02/04 05:05:33;;;;;;;10.27;6.05;;;-2.00;99.90;;;;;;5032714;28;20365;-69
2023/02/04 05:07:58;;;;;;;16.60;7.55;;;-2.00;99.90;;;;;;5032750;28;20448;-69
2023/02/04 05:10:24;;;;;;;17.67;8.07;;;-2.00;99.90;;;;;;5032494;28;20056;-69
2023/02/04 05:12:49;;;;;;;14.82;8.27;;;-2.00;99.90;;;;;;5032920;28;20072;-69
2023/02/04 05:15:15;;;;;;;15.60;9.05;;;-2.00;99.90;;;;;;5032593;28;20109;-69
2023/02/04 05:17:40;;;;;;;22.40;9.15;;;-1.80;99.90;;;;;;5032467;28;20022;-69
2023/02/04 05:20:06;;;;;;;28.58;11.40;;;-1.70;99.90;;;;;;5032545;28;20026;-69
2023/02/04 05:22:32;;;;;;;20.20;9.73;;;-1.50;99.90;;;;;;5032656;28;20034;-69
2023/02/04 05:24:57;;;;;;;28.13;11.73;;;-1.40;99.90;;;;;;5033509;28;20025;-69
2023/02/04 05:27:23;;;;;;;23.30;12.02;;;-1.40;99.90;;;;;;5035846;28;20026;-69
2023/02/04 05:29:48;;;;;;;32.00;12.93;;;-1.40;99.90;;;;;;5036460;28;20475;-69
2023/02/04 05:32:14;;;;;;;32.60;16.10;;;-1.40;99.90;;;;;;5035822;28;20131;-69
2023/02/04 05:34:39;;;;;;;24.02;12.85;;;-1.40;99.90;;;;;;5036315;28;20029;-69
2023/02/04 05:37:05;;;;;;;26.25;12.85;;;-1.30;99.90;;;;;;5036157;28;20545;-69
2023/02/04 05:39:30;;;;;;;29.38;10.65;;;-1.40;99.90;;;;;;5036171;28;20021;-69
2023/02/04 05:41:56;;;;;;;24.25;10.20;;;-1.50;99.90;;;;;;5035389;28;20037;-69
2023/02/04 05:44:21;;;;;;;28.88;12.20;;;-1.50;99.90;;;;;;5035823;28;20083;-69
2023/02/04 05:46:47;;;;;;;24.50;10.57;;;-1.40;99.90;;;;;;5035699;28;20455;-69
2023/02/04 05:49:13;;;;;;;25.65;11.48;;;-1.30;99.90;;;;;;5035786;28;20022;-69
2023/02/04 05:51:38;;;;;;;22.70;10.82;;;-1.30;99.90;;;;;;5032596;28;20025;-69
2023/02/04 05:54:04;;;;;;;24.77;10.35;;;-1.30;99.90;;;;;;5035528;28;20018;-69
2023/02/04 05:56:29;;;;;;;19.70;9.95;;;-1.40;99.90;;;;;;5035462;28;20030;-69
2023/02/04 05:58:55;;;;;;;22.65;10.38;;;-1.40;99.90;;;;;;5035842;28;20026;-69
2023/02/04 06:01:20;;;;;;;29.70;10.82;;;-1.40;99.90;;;;;;5035524;28;20025;-69
2023/02/04 06:03:46;;;;;;;22.83;11.07;;;-1.40;99.90;;;;;;5035745;28;20037;-69
2023/02/04 06:06:11;;;;;;;23.10;9.70;;;-1.30;99.90;;;;;;5035236;28;20395;-69
2023/02/04 06:08:37;;;;;;;20.13;11.10;;;-1.30;99.90;;;;;;5035809;28;20040;-69
2023/02/04 06:11:02;;;;;;;22.52;11.07;;;-1.20;99.90;;;;;;5035090;28;20025;-69
2023/02/04 06:13:28;;;;;;;16.08;8.85;;;-1.10;99.90;;;;;;5035444;28;20535;-69
2023/02/04 06:15:53;;;;;;;24.27;11.15;;;-1.10;99.90;;;;;;5035192;28;20025;-69
2023/02/04 06:18:19;;;;;;;25.98;10.98;;;-1.10;99.90;;;;;;5035182;28;20033;-69
2023/02/04 06:20:44;;;;;;;17.85;10.10;;;-1.00;99.90;;;;;;5034959;28;20036;-69
2023/02/04 06:23:10;;;;;;;19.95;10.48;;;-1.00;99.90;;;;;;5035181;28;20025;-69
2023/02/04 06:25:35;;;;;;;29.05;12.00;;;-1.00;99.90;;;;;;5035307;28;20053;-69
2023/02/04 06:28:01;;;;;;;22.55;10.90;;;-1.00;99.90;;;;;;5035038;28;20446;-69
2023/02/04 06:30:27;;;;;;;20.65;9.90;;;-0.90;99.90;;;;;;5035116;28;20518;-69
2023/02/04 06:32:52;;;;;;;29.67;11.70;;;-0.90;99.90;;;;;;5034657;28;20052;-69
2023/02/04 06:35:18;;;;;;;22.67;10.88;;;-0.90;99.90;;;;;;5034944;28;20018;-69
2023/02/04 06:37:44;;;;;;;30.77;13.07;;;-1.00;99.90;;;;;;5034275;28;20376;-69
2023/02/04 06:40:11;;;;;;;22.80;12.13;;;-1.00;99.90;;;;;;5034837;28;20032;-69
2023/02/04 06:42:36;;;;;;;38.92;12.98;;;-1.00;99.90;;;;;;5034305;28;20091;-69
2023/02/04 06:45:02;;;;;;;42.30;15.00;;;-1.00;99.90;;;;;;5030872;28;20116;-69
2023/02/04 06:47:28;;;;;;;34.30;12.60;;;-1.10;99.90;;;;;;5027973;28;20108;-69
2023/02/04 06:49:53;;;;;;;23.80;10.68;;;-1.10;99.90;;;;;;5034866;28;20482;-69
2023/02/04 06:52:19;;;;;;;35.83;12.93;;;-1.10;99.90;;;;;;5034398;28;20120;-69
2023/02/04 06:54:44;;;;;;;48.25;16.58;;;-1.10;99.90;;;;;;5035088;28;20024;-69
2023/02/04 06:57:11;;;;;;;51.60;14.80;;;-1.10;99.90;;;;;;5034324;28;20052;-70
2023/02/04 06:59:38;;;;;;;67.25;17.50;;;-1.10;99.90;;;;;;5034719;28;20048;-69
2023/02/04 07:02:06;;;;;;;50.67;17.38;;;-1.10;99.90;;;;;;5034077;28;20100;-70
2023/02/04 07:04:32;;;;;;;107.30;32.22;;;-1.20;99.90;;;;;;5034465;28;20022;-70
2023/02/04 07:06:57;;;;;;;124.40;39.85;;;-1.10;99.90;;;;;;5033957;28;20104;-69
2023/02/04 07:09:23;;;;;;;138.95;44.50;;;-1.10;99.90;;;;;;5034248;28;20100;-69
2023/02/04 07:11:48;;;;;;;99.28;32.67;;;-1.10;99.90;;;;;;5034613;28;20100;-69
2023/02/04 07:14:14;;;;;;;51.22;18.05;;;-1.10;99.90;;;;;;5033888;28;20018;-69
2023/02/04 07:16:39;;;;;;;28.20;12.93;;;-1.20;99.90;;;;;;5034323;28;20014;-70
2023/02/04 07:19:05;;;;;;;31.98;13.45;;;-1.10;99.90;;;;;;5034011;28;20394;-70
2023/02/04 07:21:30;;;;;;;41.25;15.10;;;-1.10;99.90;;;;;;5034159;28;20029;-70
2023/02/04 07:23:56;;;;;;;48.45;14.85;;;-1.10;99.90;;;;;;5034019;28;20040;-70
2023/02/04 07:26:21;;;;;;;39.30;14.57;;;-1.10;99.90;;;;;;5034075;28;20033;-70
2023/02/04 07:28:47;;;;;;;36.85;12.30;;;-1.00;99.90;;;;;;5034287;28;20029;-70
2023/02/04 07:31:13;;;;;;;27.77;11.43;;;-1.00;99.90;;;;;;5033600;28;20037;-70
2023/02/04 07:33:39;;;;;;;19.17;9.98;;;-0.90;99.90;;;;;;5034058;28;20029;-68
2023/02/04 07:36:05;;;;;;;33.38;12.35;;;-0.90;99.90;;;;;;5033546;28;20026;-68
2023/02/04 07:38:30;;;;;;;28.05;11.32;;;-0.90;99.90;;;;;;5033714;28;20032;-68
2023/02/04 07:41:05;;;;;;;26.05;11.90;;;-0.90;99.90;;;;;;5075272;22;20045;-71
2023/02/04 07:43:30;;;;;;;21.10;10.95;;;-0.90;99.90;;;;;;5013145;28;20034;-73
2023/02/04 07:45:56;;;;;;;28.63;11.95;;;-0.90;99.90;;;;;;5014060;28;20029;-72
2023/02/04 07:48:21;;;;;;;23.27;10.25;;;-0.90;99.90;;;;;;5012973;28;20033;-72
2023/02/04 07:50:47;;;;;;;27.83;11.13;;;-0.80;99.90;;;;;;5014036;28;20014;-73
2023/02/04 07:53:13;;;;;;;19.40;10.15;;;-0.80;99.90;;;;;;5013781;28;20451;-73
2023/02/04 07:55:38;;;;;;;23.33;10.77;;;-0.70;99.90;;;;;;5012621;28;20108;-73
2023/02/04 07:58:04;;;;;;;18.45;9.75;;;-0.70;99.90;;;;;;5014098;28;20030;-72
2023/02/04 08:00:30;;;;;;;21.63;10.30;;;-0.60;99.90;;;;;;5013836;28;20026;-72
2023/02/04 08:02:55;;;;;;;18.10;9.40;;;-0.50;99.90;;;;;;5014397;28;20392;-72
2023/02/04 08:05:21;;;;;;;24.08;11.52;;;-0.30;99.90;;;;;;5014007;28;20030;-72
2023/02/04 08:07:46;;;;;;;22.08;11.30;;;-0.10;99.90;;;;;;5013559;28;20036;-72
2023/02/04 08:10:13;;;;;;;19.95;11.10;;;0.00;99.90;;;;;;5014378;28;20022;-73
2023/02/04 08:12:38;;;;;;;23.42;10.40;;;0.10;99.90;;;;;;5014675;28;20506;-73
2023/02/04 08:15:07;;;;;;;25.67;11.70;;;0.10;99.90;;;;;;5013731;28;20026;-72
2023/02/04 08:17:33;;;;;;;25.35;13.35;;;0.10;99.90;;;;;;5013628;28;20101;-72
2023/02/04 08:19:58;;;;;;;23.13;11.40;;;0.20;99.90;;;;;;5013200;28;20100;-72
2023/02/04 08:22:24;;;;;;;23.08;11.55;;;0.20;99.90;;;;;;5013255;28;20030;-73
2023/02/04 08:24:49;;;;;;;19.48;11.40;;;0.30;99.90;;;;;;5012149;28;20387;-72
2023/02/04 08:27:15;;;;;;;26.00;11.60;;;0.30;99.90;;;;;;5013584;28;20555;-72
2023/02/04 08:29:40;;;;;;;26.92;11.50;;;0.40;99.90;;;;;;5013476;28;20045;-72
2023/02/04 08:32:06;;;;;;;29.90;12.07;;;0.50;99.90;;;;;;4996003;28;20014;-72
2023/02/04 08:34:31;;;;;;;27.98;11.80;;;0.60;99.90;;;;;;5013027;28;20387;-72
2023/02/04 08:36:57;;;;;;;24.98;12.27;;;0.70;99.90;;;;;;5013585;28;20064;-72
2023/02/04 08:39:22;;;;;;;34.80;12.70;;;0.80;99.90;;;;;;5013520;28;20108;-72
2023/02/04 08:41:50;;;;;;;26.38;10.38;;;0.80;99.90;;;;;;5013418;28;20034;-72
2023/02/04 08:44:16;;;;;;;27.92;10.98;;;0.90;99.90;;;;;;5013346;28;20022;-72
2023/02/04 08:46:41;;;;;;;30.17;12.00;;;0.90;99.90;;;;;;5013521;28;20040;-72
2023/02/04 08:49:07;;;;;;;23.30;11.35;;;1.00;99.90;;;;;;5013301;28;20033;-72
2023/02/04 08:51:32;;;;;;;29.92;11.15;;;1.00;99.90;;;;;;5013228;28;20022;-72
2023/02/04 08:53:58;;;;;;;24.95;11.88;;;1.10;99.90;;;;;;5013112;28;20033;-72
2023/02/04 08:56:23;;;;;;;27.42;12.30;;;1.20;99.90;;;;;;5013415;28;20030;-72
2023/02/04 08:58:51;;;;;;;23.45;11.00;;;1.40;99.90;;;;;;5013968;28;20145;-72
2023/02/04 09:01:17;;;;;;;29.38;11.68;;;1.60;99.90;;;;;;5017346;28;20026;-71
2023/02/04 09:03:43;;;;;;;23.05;11.80;;;1.80;99.90;;;;;;5016934;28;20503;-72
2023/02/04 09:06:09;;;;;;;31.17;12.55;;;2.00;99.90;;;;;;5017158;28;20025;-71
2023/02/04 09:08:35;;;;;;;29.67;10.57;;;2.20;99.90;;;;;;5016760;28;20026;-72
2023/02/04 09:11:01;;;;;;;23.83;11.43;;;2.40;99.90;;;;;;5016849;28;20476;-71
2023/02/04 09:13:26;;;;;;;35.38;11.13;;;2.50;99.90;;;;;;5016898;28;20022;-72
2023/02/04 09:15:53;;;;;;;30.05;10.82;;;2.70;99.90;;;;;;5016452;28;20022;-72
2023/02/04 09:18:20;;;;;;;24.70;10.30;;;2.90;99.90;;;;;;5015734;28;20030;-72
2023/02/04 09:20:47;;;;;;;20.15;9.45;;;3.10;99.90;;;;;;5015059;28;20088;-72
2023/02/04 09:23:13;;;;;;;21.30;9.05;;;3.20;99.90;;;;;;5016828;28;20034;-72
2023/02/04 09:25:40;;;;;;;22.75;7.40;;;3.30;99.90;;;;;;5016699;28;20057;-72
2023/02/04 09:28:08;;;;;;;13.27;6.18;;;3.40;99.90;;;;;;5016691;28;20077;-71
2023/02/04 09:30:34;;;;;;;17.40;6.32;;;3.40;99.90;;;;;;5016706;28;20022;-71
2023/02/04 09:33:00;;;;;;;10.68;5.70;;;3.40;99.90;;;;;;5016676;28;20018;-72
2023/02/04 09:35:26;;;;;;;10.55;4.75;;;3.50;99.90;;;;;;5016480;28;20014;-72
2023/02/04 09:37:51;;;;;;;10.48;4.35;;;3.60;99.90;;;;;;5016530;28;20034;-72
2023/02/04 09:40:19;;;;;;;10.57;3.90;;;3.60;99.90;;;;;;5016266;28;20022;-72
2023/02/04 09:42:49;;;;;;;7.75;3.40;;;3.70;99.90;;;;;;5016511;28;20032;-71
2023/02/04 09:45:17;;;;;;;4.63;2.35;;;3.70;99.90;;;;;;4998709;28;20055;-72
2023/02/04 09:47:43;;;;;;;6.55;2.05;;;3.60;99.90;;;;;;5016395;28;20475;-72
2023/02/04 09:50:20;;;;;;;4.18;1.77;;;3.60;99.90;;;;;;5017081;28;20033;-72
2023/02/04 09:52:48;;;;;;;4.95;1.85;;;3.60;99.90;;;;;;4999030;28;20391;-72
2023/02/04 09:55:15;;;;;;;10.35;2.33;;;3.60;99.90;;;;;;5016366;28;20037;-72
2023/02/04 09:57:41;;;;;;;10.00;2.08;;;3.70;99.90;;;;;;5016289;28;20030;-72
2023/02/04 10:00:14;;;;;;;4.50;2.28;;;3.60;99.90;;;;;;5016619;28;20104;-72
2023/02/04 10:02:40;;;;;;;10.93;2.33;;;3.80;99.90;;;;;;5016243;28;20032;-72
2023/02/04 10:05:11;;;;;;;6.75;2.20;;;3.90;99.90;;;;;;5016150;28;20030;-72
2023/02/04 10:07:37;;;;;;;5.95;2.20;;;3.90;99.90;;;;;;5016378;28;20030;-72
2023/02/04 10:10:03;;;;;;;5.72;2.17;;;3.90;99.90;;;;;;5015935;28;20075;-72
2023/02/04 10:12:29;;;;;;;7.18;2.10;;;3.80;99.90;;;;;;5015263;28;20054;-72
2023/02/04 10:14:54;;;;;;;5.75;2.08;;;3.90;99.90;;;;;;5016099;28;20475;-72
2023/02/04 10:17:21;;;;;;;4.45;2.30;;;3.90;99.90;;;;;;5016524;28;20030;-72
2023/02/04 10:19:47;;;;;;;16.67;2.45;;;3.90;99.90;;;;;;5015932;28;20029;-72
2023/02/04 10:22:19;;;;;;;5.28;2.28;;;3.90;99.90;;;;;;5015792;28;20018;-72
2023/02/04 10:24:45;;;;;;;6.65;1.90;;;3.90;99.90;;;;;;4998278;28;20480;-72
2023/02/04 10:27:14;;;;;;;7.50;2.55;;;3.90;99.90;;;;;;5015629;28;20088;-72
2023/02/04 10:29:41;;;;;;;4.78;1.85;;;4.00;99.90;;;;;;5016532;28;20102;-72
2023/02/04 10:32:32;;;;;;;6.82;2.00;;;4.00;99.90;;;;;;5014437;28;20581;-72
2023/02/04 10:34:59;;;;;;;5.07;2.20;;;4.10;99.90;;;;;;5016486;28;20041;-72
2023/02/04 10:37:25;;;;;;;6.55;2.53;;;4.20;99.90;;;;;;5016630;28;20368;-72
2023/02/04 10:39:51;;;;;;;5.18;1.98;;;4.40;99.90;;;;;;5016495;28;20034;-72
2023/02/04 10:42:25;;;;;;;3.95;1.48;;;4.50;99.90;;;;;;5015253;28;20088;-72
2023/02/04 10:44:51;;;;;;;6.00;1.75;;;4.60;99.90;;;;;;5015796;28;20036;-72
2023/02/04 10:47:34;;;;;;;4.07;1.58;;;4.70;99.90;;;;;;5015345;28;20029;-72
2023/02/04 10:50:05;;;;;;;6.35;1.63;;;4.80;99.90;;;;;;5015367;28;20479;-72
2023/02/04 10:52:37;;;;;;;2.15;1.38;;;4.90;99.90;;;;;;5015379;28;20044;-72
2023/02/04 10:55:05;;;;;;;3.88;1.63;;;4.80;99.90;;;;;;5015183;28;20022;-72
2023/02/04 10:57:33;;;;;;;4.63;1.15;;;4.70;99.90;;;;;;5015111;28;20026;-72
2023/02/04 11:00:02;;;;;;;4.65;1.40;;;4.70;99.90;;;;;;5015147;28;20022;-72
2023/02/04 11:02:42;;;;;;;4.25;1.50;;;4.60;99.90;;;;;;5015098;28;20033;-73
2023/02/04 11:05:15;;;;;;;5.38;1.58;;;4.60;99.90;;;;;;4997584;28;20033;-73
2023/02/04 11:07:41;;;;;;;5.07;1.73;;;4.70;99.90;;;;;;5015470;28;20018;-73
2023/02/04 11:10:21;;;;;;;4.43;1.33;;;5.10;99.90;;;;;;5015359;28;20025;-74
2023/02/04 11:12:52;;;;;;;3.50;1.23;;;5.30;99.90;;;;;;5007136;28;20030;-74
2023/02/04 11:15:38;;;;;;;5.90;1.50;;;5.40;99.90;;;;;;5002394;28;20029;-74
2023/02/04 11:18:28;;;;;;;5.28;1.50;;;5.50;99.90;;;;;;5014805;28;20033;-74
2023/02/04 11:20:57;;;;;;;2.85;1.02;;;5.60;99.90;;;;;;4999266;28;20037;-74
2023/02/04 11:23:25;;;;;;;6.93;1.50;;;5.70;99.90;;;;;;5014850;28;20503;-74
2023/02/04 11:26:17;;;;;;;3.75;1.65;;;5.90;99.90;;;;;;5014697;28;20108;-74
2023/02/04 11:28:58;;;;;;;5.18;1.30;;;5.90;99.90;;;;;;5015064;28;20372;-73
2023/02/04 11:31:23;;;;;;;7.20;1.60;;;5.90;99.90;;;;;;5014633;28;20080;-74
2023/02/04 11:34:01;;;;;;;3.30;1.40;;;6.00;99.90;;;;;;5014747;28;20018;-74
2023/02/04 11:36:28;;;;;;;2.20;1.23;;;6.10;99.90;;;;;;5014703;28;20480;-74
2023/02/04 11:38:53;;;;;;;3.80;1.35;;;6.10;99.90;;;;;;5014626;28;20099;-73
2023/02/04 11:41:28;;;;;;;5.07;1.30;;;6.10;99.90;;;;;;5014069;28;20575;-74
2023/02/04 11:43:54;;;;;;;7.10;2.40;;;6.10;99.90;;;;;;5015044;28;20040;-73
2023/02/04 11:46:21;;;;;;;6.43;1.63;;;6.00;99.90;;;;;;5014436;28;20472;-74
2023/02/04 11:48:52;;;;;;;2.90;1.38;;;6.10;99.90;;;;;;5014406;28;20071;-74
2023/02/04 11:51:22;;;;;;;2.95;1.50;;;6.10;99.90;;;;;;5014263;28;20018;-74
2023/02/04 11:53:51;;;;;;;5.40;1.48;;;6.20;99.90;;;;;;5014635;28;20022;-73
2023/02/04 11:56:19;;;;;;;9.27;1.88;;;6.20;99.90;;;;;;4996662;28;20057;-74
2023/02/04 11:58:47;;;;;;;4.15;1.80;;;6.20;99.90;;;;;;5014407;28;20109;-74
2023/02/04 12:01:20;;;;;;;4.32;1.33;;;6.10;99.90;;;;;;5006460;28;20033;-73
2023/02/04 12:03:54;;;;;;;;;;;6.20;99.90;;;;;;4995486;28;20058;-73
2023/02/04 12:06:25;;;;;;;7.72;1.55;;;6.30;99.90;;;;;;4999008;28;20000;-76
2023/02/04 12:08:50;;;;;;;4.75;1.70;;;6.40;99.90;;;;;;5014481;28;20500;-74
2023/02/04 12:11:29;;;;;;;2.70;1.80;;;6.40;99.90;;;;;;5013487;28;20040;-74
2023/02/04 12:13:57;;;;;;;2.42;1.40;;;6.40;99.90;;;;;;4994712;28;20129;-74
2023/02/04 12:16:24;;;;;;;9.10;1.73;;;6.30;99.90;;;;;;4999208;28;20076;-74
2023/02/04 12:18:50;;;;;;;2.47;1.30;;;6.20;99.90;;;;;;5014027;28;20029;-73
2023/02/04 12:21:17;;;;;;;2.78;1.67;;;6.10;99.90;;;;;;5014078;28;20531;-73
2023/02/04 12:23:43;;;;;;;3.35;1.58;;;6.00;99.90;;;;;;5013923;28;20030;-72
2023/02/04 12:26:10;;;;;;;5.82;1.83;;;5.90;99.90;;;;;;5013767;28;20030;-71
2023/02/04 12:28:36;;;;;;;9.00;1.65;;;5.80;99.90;;;;;;5013714;28;20029;-71
2023/02/04 12:31:01;;;;;;;4.82;2.50;;;5.80;99.90;;;;;;4996170;28;20022;-70
2023/02/04 12:33:27;;;;;;;7.35;1.40;;;5.80;99.90;;;;;;5011073;28;20084;-72
2023/02/04 12:35:53;;;;;;;5.40;1.70;;;5.90;99.90;;;;;;5020187;28;20021;-72
2023/02/04 12:38:18;;;;;;;3.03;1.40;;;6.00;99.90;;;;;;5020532;28;20128;-72
2023/02/04 12:40:44;;;;;;;4.53;1.63;;;6.20;99.90;;;;;;5020795;28;20545;-72